LEVCLPPR

Guest
Details From LEVC - Valencia
To LPPR - Porto
Flight Number -
Tags Generated
Created
Modified
Stats Distance 390 nm / 722 km
Max Altitude 0 ft / 0 m
Waypoints 3
Social Downloads 0
Likes 0
Share VATSIM

Download

Looking for another format? Having issues loading an existing format? Contact us
Advertisement - Login to hide

Notes

Generated

Route

LEVC PRT LPPR

ID Type Via Altitude Latitude Longitude Leg Dist Tot Dist Heading (true) Name
O LEVC APT - 0 ft / 0 m 39.49655˚ -0.50070˚ - 0 nm - -
PRT VOR - 0 ft / 0 m 41.27300˚ -8.68783˚ 389 nm 389 nm 289° / 283° PORTO VOR-DME
O LPPR APT - 0 ft / 0 m 41.26333˚ -8.68524˚ 0 nm 389 nm 169° / 169° -

Altitude Profile

Advertisement - Login to hide

Weather


0- 5 10 15 20 25 30 35+ Temperature / ° C

Clouds and Precipitation
Forecast for 2018-05-28 00:00 UTC. Updated 9 hours ago

Ground ~20,000 ft ~40,000 ft Winds

LEVC

Details ICAO LEVC (VLC)
Name Valencia
Region Spain
Timezone Europe/Madrid (UTC+2.0)
Stats Elevation 225 ft / 69 m (AMSL)
Location 39.488236° -0.483892°
Runways 2
Magnetic Variation 0.243° E

METAR

Not found

TAF

TAF LEVC 272300Z 2800/2824 27005KT 9999 FEW020 TX26/2812Z TN15/2806Z PROB30 TEMPO 2800/2808 VRB04KT 4000 BR SCT014 BECMG 2809/2812 12010KT PROB40 TEMPO 2814/2824 4000 SHRA BKN020 FEW025TCU BECMG 2817/2820 05005KT

Decode

Departure Runways

ID Width Length Bearing (true) Bearing (mag) Surface Threshold Offset Overrun Length
12 148 ft / 45 m 10,555 ft / 3,217 m 116.25° 116.01° Asphalt 0 ft / 0 m 646 ft / 197 m
22 154 ft / 47 m 3,828 ft / 1,167 m 217.99° 217.75° Asphalt 0 ft / 0 m 0 ft / 0 m
30 148 ft / 45 m 10,555 ft / 3,217 m 296.27° 296.03° Asphalt 1,001 ft / 305 m 932 ft / 284 m
4 154 ft / 47 m 3,828 ft / 1,167 m 37.98° 37.74° Asphalt 0 ft / 0 m 0 ft / 0 m

LPPR

Details ICAO LPPR (OPO)
Name Porto
Region Portugal
Timezone Europe/Lisbon (UTC+1.0)
Stats Elevation 228 ft / 69 m (AMSL)
Location 41.247932° -8.681221°
Runways 1
Magnetic Variation 2.281° W

METAR

Not found

TAF

TAF LPPR 272300Z 2800/2824 33007KT 9999 SCT012 BKN030 BECMG 2800/2803 VRB03KT FEW008 BKN015 PROB40 TEMPO 2803/2808 5000 BR SCT002 BKN004 BECMG 2809/2811 34010KT FEW018 SCT030 BECMG 2813/2815 33017KT BECMG 2819/2822 VRB03KT BKN008

Decode

Destination Runways

ID Width Length Bearing (true) Bearing (mag) Surface Threshold Offset Overrun Length
17 148 ft / 45 m 11,451 ft / 3,490 m 168.88° 171.16° Asphalt 984 ft / 300 m 220 ft / 67 m
35 148 ft / 45 m 11,451 ft / 3,490 m 348.89° 351.17° Asphalt 492 ft / 150 m 370 ft / 113 m

Approach Navaids

Runway Type Ident Frequency Range Bearing (true) Bearing (mag) Slope Elevation
17 Localiser PR 109.90 MHz 18 nm / 33 km 168.87° 171.15° - 228 ft / 69 m (AMSL)
17 Glidescope PR 109.90 MHz 10 nm / 19 km 168.88° 171.16° 2.72° 228 ft / 69 m (AMSL)
17 DME PR 109.90 MHz 18 nm / 33 km - - - 228 ft / 69 m (AMSL)

Popular Alternatives